Time;durP1;ratioP1;P1;durP2;ratioP2;P2;SDS_P1;SDS_P2;PMS_P1;PMS_P2;Temp;Humidity;BMP_temperature;BMP_pressure;BME280_temperature;BME280_humidity;BME280_pressure;Samples;Min_cycle;Max_cycle;Signal;HPM_P1;HPM_P2
2023/08/29 00:02:20;;;;;;;4.43;2.57;;;;;;;25.37;48.38;94121.03;4973113;28;20433;-76
2023/08/29 00:04:45;;;;;;;4.63;2.75;;;;;;;25.40;48.34;94128.47;4972880;28;20564;-75
2023/08/29 00:07:10;;;;;;;4.50;2.70;;;;;;;25.51;48.18;94113.56;4973234;28;20417;-75
2023/08/29 00:09:36;;;;;;;4.67;2.57;;;;;;;25.51;47.98;94122.41;4970957;28;20448;-76
2023/08/29 00:12:03;;;;;;;4.60;2.80;;;;;;;25.44;48.36;94124.00;4972456;28;20429;-75
2023/08/29 00:14:29;;;;;;;4.80;2.80;;;;;;;25.35;48.34;94123.25;4972496;28;20414;-76
2023/08/29 00:16:54;;;;;;;4.85;2.90;;;;;;;25.30;48.44;94104.56;4973163;28;21100;-75
2023/08/29 00:19:21;;;;;;;3.97;2.63;;;;;;;25.35;48.50;94115.94;4973750;28;20912;-75
2023/08/29 00:21:47;;;;;;;4.90;3.00;;;;;;;25.22;48.43;94097.31;4972366;28;20877;-75
2023/08/29 00:24:13;;;;;;;5.32;2.90;;;;;;;25.21;48.68;94118.06;4973445;28;20923;-76
2023/08/29 00:26:39;;;;;;;5.10;2.72;;;;;;;25.22;49.01;94118.84;4973077;28;20429;-76
2023/08/29 00:29:04;;;;;;;5.83;3.00;;;;;;;25.06;49.27;94113.19;4955042;28;20443;-75
2023/08/29 00:31:32;;;;;;;2.93;2.60;;;;;;;25.11;49.15;94115.69;4973051;28;20074;-75
2023/08/29 00:33:57;;;;;;;4.10;2.13;;;;;;;25.08;49.21;94111.72;4973661;28;20641;-75
2023/08/29 00:36:23;;;;;;;4.17;2.73;;;;;;;25.10;49.54;94114.09;4972780;28;20425;-76
2023/08/29 00:38:48;;;;;;;3.20;2.50;;;;;;;25.06;49.27;94115.88;4973451;28;20380;-76
2023/08/29 00:41:13;;;;;;;4.43;3.00;;;;;;;25.05;49.57;94116.97;4972984;28;20418;-75
2023/08/29 00:43:39;;;;;;;4.43;3.10;;;;;;;24.90;49.62;94107.47;4973178;28;20230;-75
2023/08/29 00:46:06;;;;;;;5.60;3.50;;;;;;;24.98;49.57;94112.09;4973334;28;20178;-76
2023/08/29 00:48:32;;;;;;;7.15;4.65;;;;;;;24.95;50.05;94103.84;4973539;28;20229;-77
2023/08/29 00:50:58;;;;;;;7.07;2.70;;;;;;;25.02;49.48;94106.84;4973537;28;20182;-76
2023/08/29 00:53:25;;;;;;;6.75;3.47;;;;;;;25.11;49.65;94119.19;4973407;28;20190;-76
2023/08/29 00:55:51;;;;;;;5.65;2.70;;;;;;;25.06;49.50;94115.88;4971673;28;20414;-76
2023/08/29 00:58:18;;;;;;;8.53;2.83;;;;;;;24.97;49.68;94115.88;4971633;28;20813;-76
2023/08/29 01:00:45;;;;;;;5.05;2.95;;;;;;;24.94;49.91;94124.59;4971695;28;20432;-75
2023/08/29 01:03:11;;;;;;;7.70;2.78;;;;;;;24.73;49.89;94083.25;4971214;28;20434;-76
2023/08/29 01:05:36;;;;;;;7.75;3.03;;;;;;;24.87;50.20;94118.88;4961932;28;20426;-76
2023/08/29 01:08:03;;;;;;;6.33;2.97;;;;;;;24.70;50.57;94116.19;4966275;28;20464;-76
2023/08/29 01:10:41;;;;;;;5.05;2.83;;;;;;;24.76;50.33;94113.00;4957013;28;20422;-76
2023/08/29 01:13:33;;;;;;;5.45;2.80;;;;;;;24.62;50.64;94096.25;4952024;28;20447;-76
2023/08/29 01:16:03;;;;;;;6.53;2.97;;;;;;;24.71;50.75;94112.41;4951451;28;20443;-75
2023/08/29 01:18:31;;;;;;;4.72;2.90;;;;;;;24.60;50.95;94095.75;4971850;28;20421;-76
2023/08/29 01:21:06;;;;;;;6.88;2.95;;;;;;;24.63;50.88;94089.75;4970522;28;20443;-76
2023/08/29 01:23:50;;;;;;;5.75;2.80;;;;;;;24.68;50.92;94092.28;4961059;28;20474;-76
2023/08/29 01:26:16;;;;;;;6.75;3.40;;;;;;;24.67;50.85;94085.31;4960682;28;20451;-76
2023/08/29 01:28:46;;;;;;;6.70;3.10;;;;;;;24.70;50.97;94076.59;4951764;29;20443;-76
2023/08/29 01:31:13;;;;;;;5.65;2.88;;;;;;;24.61;51.17;94077.72;4967378;28;20429;-76
2023/08/29 01:33:39;;;;;;;6.97;3.27;;;;;;;24.48;51.34;94075.97;4969128;28;20422;-76
2023/08/29 01:36:06;;;;;;;4.97;3.07;;;;;;;24.46;51.65;94072.81;4955730;28;20910;-76
2023/08/29 01:38:31;;;;;;;4.20;2.70;;;;;;;24.33;51.75;94066.47;4953054;29;20477;-76
2023/08/29 01:40:57;;;;;;;5.90;2.90;;;;;;;24.30;52.08;94072.50;4969512;28;20417;-76
2023/08/29 01:43:22;;;;;;;7.73;2.80;;;;;;;24.46;51.63;94075.50;4971268;28;20998;-76
2023/08/29 01:45:47;;;;;;;6.18;2.90;;;;;;;24.31;51.94;94050.63;4964004;28;20426;-76
2023/08/29 01:48:13;;;;;;;5.30;3.03;;;;;;;24.35;51.64;94064.25;4951621;28;20438;-76
2023/08/29 01:50:40;;;;;;;4.90;3.00;;;;;;;24.31;52.09;94069.47;4963432;28;20897;-76
2023/08/29 01:53:07;;;;;;;4.78;3.08;;;;;;;24.32;52.06;94071.06;4957376;28;20806;-76
2023/08/29 01:55:33;;;;;;;4.83;2.90;;;;;;;24.29;52.46;94073.59;4968794;28;20468;-76
2023/08/29 01:57:59;;;;;;;8.07;3.40;;;;;;;24.41;51.83;94082.63;4952500;28;20438;-76
2023/08/29 02:00:25;;;;;;;6.65;2.78;;;;;;;24.49;51.68;94086.41;4952159;29;20422;-76
2023/08/29 02:02:51;;;;;;;7.10;2.60;;;;;;;24.35;52.12;94069.63;4955605;28;20445;-76
2023/08/29 02:05:16;;;;;;;5.18;3.13;;;;;;;24.29;52.35;94078.97;4971135;28;20932;-76
2023/08/29 02:07:42;;;;;;;3.50;2.80;;;;;;;24.32;52.19;94078.34;4970813;28;20434;-76
2023/08/29 02:10:08;;;;;;;6.65;2.92;;;;;;;24.31;52.12;94082.91;4971393;28;20445;-76
2023/08/29 02:12:34;;;;;;;9.48;3.50;;;;;;;24.32;52.24;94089.88;4971044;28;20482;-76
2023/08/29 02:14:59;;;;;;;7.80;3.20;;;;;;;24.25;52.54;94086.09;4970981;28;20417;-76
2023/08/29 02:17:25;;;;;;;4.27;3.03;;;;;;;24.14;52.97;94082.88;4970966;28;20456;-76
2023/08/29 02:19:50;;;;;;;5.95;2.83;;;;;;;24.14;52.89;94088.25;4972223;28;20186;-76
2023/08/29 02:22:15;;;;;;;7.07;3.07;;;;;;;24.05;52.95;94084.75;4971006;28;20509;-76
2023/08/29 02:24:41;;;;;;;3.40;3.00;;;;;;;23.84;53.21;94059.56;4971116;28;20921;-76
2023/08/29 02:27:06;;;;;;;4.17;2.70;;;;;;;23.99;53.26;94086.81;4971320;28;20445;-76
2023/08/29 02:29:32;;;;;;;5.73;3.20;;;;;;;24.01;53.37;94086.50;4970638;28;20448;-76
2023/08/29 02:31:57;;;;;;;4.47;2.77;;;;;;;24.02;53.23;94075.44;4971138;28;20434;-76
2023/08/29 02:34:24;;;;;;;5.38;3.15;;;;;;;23.82;53.08;94026.81;4971010;28;20422;-76
2023/08/29 02:36:50;;;;;;;5.07;3.20;;;;;;;23.98;53.33;94069.09;4970513;28;20448;-75
2023/08/29 02:39:16;;;;;;;6.93;3.23;;;;;;;23.90;53.39;94071.75;4970624;28;20508;-76
2023/08/29 02:41:42;;;;;;;5.43;3.23;;;;;;;23.94;53.59;94070.03;4970751;28;20572;-76
2023/08/29 02:44:07;;;;;;;5.13;3.05;;;;;;;23.81;53.87;94068.25;4971166;28;20839;-76
2023/08/29 02:46:32;;;;;;;4.07;2.70;;;;;;;23.78;53.89;94068.91;4971158;28;20422;-76
2023/08/29 02:48:58;;;;;;;5.30;3.20;;;;;;;23.78;53.99;94066.22;4970573;28;20441;-76
2023/08/29 02:51:23;;;;;;;5.63;2.90;;;;;;;23.74;54.34;94067.94;4970328;28;20912;-75
2023/08/29 02:53:48;;;;;;;6.60;3.00;;;;;;;23.66;54.22;94066.81;4970658;28;20418;-75
2023/08/29 02:56:14;;;;;;;5.82;3.00;;;;;;;23.80;54.08;94077.41;4974144;28;20814;-76
2023/08/29 02:58:39;;;;;;;6.43;3.20;;;;;;;23.80;54.20;94085.47;4974043;28;20429;-76
2023/08/29 03:01:09;;;;;;;6.23;3.13;;;;;;;23.82;54.01;94081.38;4956458;28;20445;-75
2023/08/29 03:03:36;;;;;;;4.90;3.17;;;;;;;23.79;54.02;94082.00;4974054;28;20786;-76
2023/08/29 03:06:01;;;;;;;5.63;3.08;;;;;;;23.67;54.55;94079.13;4973837;28;20426;-76
2023/08/29 03:08:26;;;;;;;5.38;2.78;;;;;;;23.61;54.43;94069.66;4974204;28;20438;-76
2023/08/29 03:10:53;;;;;;;3.67;2.65;;;;;;;23.73;54.38;94077.09;4975173;28;20669;-76
2023/08/29 03:13:18;;;;;;;7.10;2.67;;;;;;;23.63;54.79;94084.34;4974896;28;20205;-76
2023/08/29 03:15:45;;;;;;;7.93;3.30;;;;;;;23.39;54.69;94026.69;4973794;28;20452;-76
2023/08/29 03:18:10;;;;;;;5.35;2.97;;;;;;;23.73;54.23;94064.44;4974597;28;20774;-76
2023/08/29 03:20:45;;;;;;;5.13;3.35;;;;;;;23.74;54.46;94071.41;4973749;28;20497;-76
2023/08/29 03:23:11;;;;;;;4.93;3.28;;;;;;;23.69;54.68;94063.50;4965408;28;20410;-75
2023/08/29 03:25:37;;;;;;;5.20;3.33;;;;;;;23.76;54.21;94066.53;4974021;28;20420;-76
2023/08/29 03:28:03;;;;;;;5.15;3.15;;;;;;;23.74;54.45;94063.34;4972859;28;20457;-74
2023/08/29 03:30:30;;;;;;;7.72;3.97;;;;;;;23.66;54.50;94059.53;4972836;28;20410;-75
2023/08/29 03:32:55;;;;;;;5.57;3.20;;;;;;;23.70;54.58;94063.16;4957945;28;20981;-77
2023/08/29 03:35:20;;;;;;;5.67;3.53;;;;;;;23.72;54.75;94062.06;4973393;28;20421;-76
2023/08/29 03:37:46;;;;;;;5.88;3.22;;;;;;;23.76;54.51;94044.22;4974496;28;20432;-76
2023/08/29 03:40:12;;;;;;;6.00;3.57;;;;;;;23.81;54.22;94058.28;4974404;28;20808;-76
2023/08/29 03:42:39;;;;;;;6.63;3.05;;;;;;;23.82;54.27;94057.19;4974098;28;20448;-76
2023/08/29 03:45:05;;;;;;;5.07;3.20;;;;;;;23.76;54.33;94045.00;4973089;28;20465;-76
2023/08/29 03:47:32;;;;;;;4.00;2.83;;;;;;;23.72;54.52;94057.47;4973169;28;20442;-76
2023/08/29 03:49:58;;;;;;;6.10;3.00;;;;;;;23.61;54.20;94026.66;4973591;28;20430;-77
2023/08/29 03:52:27;;;;;;;5.97;3.03;;;;;;;23.66;54.67;94045.31;4972963;28;20433;-77
2023/08/29 03:54:56;;;;;;;5.63;3.22;;;;;;;23.63;54.92;94038.66;4972770;28;20421;-77
2023/08/29 03:57:27;;;;;;;6.32;2.47;;;;;;;23.75;54.41;94029.19;4973242;28;20177;-77
2023/08/29 03:59:52;;;;;;;17.30;3.45;;;;;;;23.88;54.28;94047.88;4974943;28;20262;-77
2023/08/29 04:02:18;;;;;;;6.55;3.38;;;;;;;23.72;54.09;94021.75;4974624;28;20264;-78
2023/08/29 04:04:44;;;;;;;4.95;2.95;;;;;;;23.80;54.43;94037.88;4960078;28;20815;-77
2023/08/29 04:07:10;;;;;;;5.78;3.03;;;;;;;23.78;54.57;94044.72;4945611;29;20209;-78
2023/08/29 04:09:36;;;;;;;7.47;3.35;;;;;;;23.78;54.71;94039.34;4955753;28;20633;-77
2023/08/29 04:12:02;;;;;;;8.48;5.03;;;;;;;23.60;55.32;94041.97;4963762;28;20214;-77
2023/08/29 04:14:28;;;;;;;4.43;3.22;;;;;;;23.56;55.48;94050.97;4967181;28;20611;-77
2023/08/29 04:16:53;;;;;;;9.57;4.15;;;;;;;23.53;55.60;94049.69;4963286;28;20181;-77
2023/08/29 04:19:18;;;;;;;7.95;3.60;;;;;;;23.62;55.42;94050.50;4953763;29;20178;-77
2023/08/29 04:21:44;;;;;;;16.10;7.10;;;;;;;23.50;56.13;94050.31;4968053;28;20186;-77
2023/08/29 04:24:09;;;;;;;9.18;3.80;;;;;;;23.47;56.26;94040.16;4961891;28;20209;-77
2023/08/29 04:26:35;;;;;;;5.07;3.63;;;;;;;23.67;55.71;94046.88;4969990;28;20190;-77
2023/08/29 04:29:00;;;;;;;8.07;4.50;;;;;;;23.79;55.78;94036.31;4958467;28;20753;-76
2023/08/29 04:31:26;;;;;;;7.72;3.75;;;;;;;23.95;55.32;94042.84;4953958;29;20229;-75
2023/08/29 04:33:51;;;;;;;11.60;4.05;;;;;;;24.08;55.24;94036.50;4958155;28;20217;-75
2023/08/29 04:36:17;;;;;;;14.23;3.60;;;;;;;24.14;55.11;94045.22;4973590;28;20201;-75
2023/08/29 04:38:45;;;;;;;10.43;4.25;;;;;;;24.25;54.87;94059.19;4973466;28;20176;-74
2023/08/29 04:41:11;;;;;;;13.05;4.22;;;;;;;24.19;55.42;94052.34;4955985;28;20182;-75
2023/08/29 04:43:36;;;;;;;14.70;4.13;;;;;;;24.55;54.47;94060.94;4973147;28;20280;-75
2023/08/29 04:46:02;;;;;;;7.15;3.70;;;;;;;25.16;53.18;94034.72;4972906;28;20265;-75
2023/08/29 04:48:27;;;;;;;4.65;3.10;;;;;;;25.80;50.62;94056.19;4972678;28;20196;-75
2023/08/29 04:50:52;;;;;;;5.13;3.20;;;;;;;26.09;48.67;94050.78;4972702;28;20190;-75
2023/08/29 04:53:18;;;;;;;6.95;2.97;;;;;;;26.32;47.97;94055.88;4972849;28;20196;-75
2023/08/29 04:55:43;;;;;;;12.68;3.50;;;;;;;27.23;45.90;94053.00;4961177;28;20177;-75
2023/08/29 04:58:09;;;;;;;7.15;3.15;;;;;;;27.55;44.58;94053.28;4954496;28;20260;-75
2023/08/29 05:00:34;;;;;;;4.60;2.72;;;;;;;28.23;43.80;94037.28;4971920;28;20248;-75
2023/08/29 05:03:00;;;;;;;6.72;3.17;;;;;;;28.82;42.53;94030.09;4971840;28;20257;-75
2023/08/29 05:05:25;;;;;;;9.30;2.72;;;;;;;28.48;41.95;94017.13;4972038;28;20192;-75
2023/08/29 05:07:51;;;;;;;5.50;2.90;;;;;;;28.89;41.10;94030.28;4954577;28;20671;-75
2023/08/29 05:10:16;;;;;;;9.85;2.90;;;;;;;28.34;42.65;94025.63;4972639;28;20269;-73
2023/08/29 05:12:41;;;;;;;5.88;3.17;;;;;;;28.28;42.61;94023.50;4959078;28;20178;-75
2023/08/29 05:15:08;;;;;;;6.80;2.63;;;;;;;28.97;41.21;94015.03;4953365;29;20179;-74
2023/08/29 05:17:33;;;;;;;10.20;3.63;;;;;;;30.16;39.94;94036.56;4950448;28;20864;-74
2023/08/29 05:19:59;;;;;;;7.15;3.20;;;;;;;31.10;38.06;94026.13;4952816;28;20229;-74
2023/08/29 05:22:24;;;;;;;6.28;3.25;;;;;;;32.38;36.16;94030.94;4952716;29;20194;-74
2023/08/29 05:24:49;;;;;;;10.55;3.58;;;;;;;33.40;33.15;94029.81;4952845;29;20187;-74
2023/08/29 05:27:15;;;;;;;9.23;4.50;;;;;;;33.55;33.41;94034.28;4952924;29;20658;-75
2023/08/29 05:29:41;;;;;;;9.65;3.28;;;;;;;34.02;32.79;94030.78;4952728;29;20209;-74
2023/08/29 05:32:06;;;;;;;15.35;3.53;;;;;;;33.92;32.48;94035.00;4952732;28;20182;-74
2023/08/29 05:34:32;;;;;;;7.50;3.42;;;;;;;32.87;33.52;94028.06;4952951;29;20254;-74
2023/08/29 05:36:57;;;;;;;6.82;3.25;;;;;;;32.94;34.07;94036.38;4946850;28;20320;-74
2023/08/29 05:39:23;;;;;;;12.93;3.38;;;;;;;32.20;35.25;94036.16;4954195;28;20206;-75
2023/08/29 05:41:49;;;;;;;9.90;3.47;;;;;;;31.72;35.98;94032.28;4953043;29;20186;-74
2023/08/29 05:44:15;;;;;;;5.32;2.67;;;;;;;31.34;36.07;94046.75;4952850;28;20187;-74
2023/08/29 05:46:40;;;;;;;8.52;3.90;;;;;;;30.59;37.22;94049.16;4952547;29;20182;-74
2023/08/29 05:49:06;;;;;;;5.18;3.00;;;;;;;28.88;40.50;94036.88;4952887;29;20273;-74
2023/08/29 05:51:31;;;;;;;4.95;3.10;;;;;;;28.02;42.83;94030.03;4953131;29;20265;-74
2023/08/29 05:53:56;;;;;;;4.80;3.13;;;;;;;27.09;45.08;94025.47;4952939;29;20228;-75
2023/08/29 05:56:22;;;;;;;4.88;3.22;;;;;;;26.82;45.89;94026.06;4952758;29;20186;-75
2023/08/29 05:58:47;;;;;;;7.07;4.32;;;;;;;26.75;45.79;94010.38;4952932;29;20249;-74
2023/08/29 06:01:13;;;;;;;6.25;3.05;;;;;;;26.78;45.92;94027.84;4961292;28;20186;-75
2023/08/29 06:03:38;;;;;;;8.23;2.92;;;;;;;26.65;46.28;94033.19;4962017;28;20218;-74
2023/08/29 06:06:04;;;;;;;6.60;2.90;;;;;;;27.12;45.87;94007.81;4971840;28;20747;-74
2023/08/29 06:08:35;;;;;;;7.07;3.85;;;;;;;28.20;43.15;94041.44;4971781;28;20189;-75
2023/08/29 06:11:03;;;;;;;6.07;3.25;;;;;;;29.94;40.05;94051.56;4971866;28;20178;-75
2023/08/29 06:13:29;;;;;;;6.32;3.05;;;;;;;31.14;37.08;94050.66;4971454;28;20170;-75
2023/08/29 06:15:54;;;;;;;5.80;3.00;;;;;;;31.30;35.65;94040.50;4971059;28;20212;-75
2023/08/29 06:18:20;;;;;;;8.45;3.33;;;;;;;32.04;34.83;94056.50;4971247;28;20671;-75
2023/08/29 06:20:46;;;;;;;7.88;3.42;;;;;;;31.46;35.41;94053.97;4971577;28;20229;-74
2023/08/29 06:23:11;;;;;;;5.40;2.97;;;;;;;30.53;37.01;94032.34;4971305;28;20190;-75
2023/08/29 06:25:36;;;;;;;8.60;2.97;;;;;;;30.67;37.65;94037.31;4971550;28;20256;-75
2023/08/29 06:28:02;;;;;;;3.05;2.50;;;;;;;30.68;37.00;94039.66;4971607;28;20677;-75
2023/08/29 06:30:28;;;;;;;5.45;3.20;;;;;;;29.81;38.45;94039.22;4974678;28;20182;-75
2023/08/29 06:32:54;;;;;;;5.35;2.65;;;;;;;30.26;37.45;94046.88;4975125;28;20182;-74
2023/08/29 06:35:20;;;;;;;4.75;2.97;;;;;;;29.72;39.08;94044.06;4975366;28;20646;-75
2023/08/29 06:37:45;;;;;;;4.38;2.58;;;;;;;29.93;38.66;94044.53;4975558;28;20216;-77
2023/08/29 06:40:14;;;;;;;7.90;3.10;;;;;;;30.04;38.03;94034.75;4976517;28;20170;-75
2023/08/29 06:42:41;;;;;;;3.47;2.70;;;;;;;29.49;38.95;94016.75;4975712;28;20224;-76
2023/08/29 06:45:08;;;;;;;6.05;2.70;;;;;;;29.94;38.94;94029.84;4975698;28;20177;-79
2023/08/29 06:47:33;;;;;;;6.00;2.92;;;;;;;30.09;38.31;94039.94;4976581;28;20173;-78
2023/08/29 06:49:59;;;;;;;8.85;3.38;;;;;;;30.57;38.26;94040.59;4976101;28;20213;-78
2023/08/29 06:52:28;;;;;;;5.57;3.35;;;;;;;30.81;37.91;94039.50;4976267;28;20182;-79
2023/08/29 06:54:54;;;;;;;6.20;3.00;;;;;;;30.59;37.46;94024.72;4976016;28;20182;-78
2023/08/29 06:57:19;;;;;;;8.70;3.28;;;;;;;30.09;38.57;94033.72;4976411;28;20268;-78
2023/08/29 06:59:44;;;;;;;6.43;3.33;;;;;;;29.97;39.32;94034.59;4976224;28;20166;-78
2023/08/29 07:02:10;;;;;;;8.25;4.05;;;;;;;29.96;40.00;94022.16;4976190;28;20228;-80
2023/08/29 07:04:35;;;;;;;10.82;3.70;;;;;;;30.07;39.21;94028.63;4974386;28;20221;-78
2023/08/29 07:07:00;;;;;;;5.18;3.80;;;;;;;30.08;38.43;94016.63;4965262;28;20709;-78
2023/08/29 07:09:27;;;;;;;6.65;3.17;;;;;;;29.90;39.36;94037.13;4964656;28;20207;-78
2023/08/29 07:11:53;;;;;;;9.38;4.18;;;;;;;30.08;39.41;94041.06;4965034;28;20261;-78
2023/08/29 07:14:19;;;;;;;7.43;3.72;;;;;;;30.26;39.06;94041.47;4955627;29;20220;-75
2023/08/29 07:16:44;;;;;;;14.82;3.85;;;;;;;30.15;38.99;94043.94;4955104;29;20186;-75
2023/08/29 07:19:12;;;;;;;8.63;3.42;;;;;;;30.28;39.09;94045.38;4955296;29;20182;-75
2023/08/29 07:21:37;;;;;;;5.75;3.17;;;;;;;30.74;37.62;94037.44;4957982;28;20665;-75
2023/08/29 07:24:04;;;;;;;7.82;4.82;;;;;;;30.88;37.68;94039.63;4963480;28;20206;-75
2023/08/29 07:26:30;;;;;;;10.90;3.83;;;;;;;31.18;37.42;94042.59;4968505;28;20182;-75
2023/08/29 07:28:55;;;;;;;6.80;3.42;;;;;;;31.15;37.06;94049.53;4964802;28;20245;-75
2023/08/29 07:31:20;;;;;;;7.75;3.67;;;;;;;30.98;37.15;94045.28;4954901;29;20217;-75
2023/08/29 07:33:46;;;;;;;8.05;3.50;;;;;;;31.27;36.67;94043.13;4954942;28;20205;-75
2023/08/29 07:36:11;;;;;;;8.35;3.03;;;;;;;31.46;36.79;94038.44;4955289;29;20182;-75
2023/08/29 07:38:37;;;;;;;7.57;3.30;;;;;;;31.91;36.00;94038.81;4954981;28;20201;-74
2023/08/29 07:41:02;;;;;;;8.25;3.75;;;;;;;32.24;34.67;94058.00;4963333;28;20174;-74
2023/08/29 07:43:28;;;;;;;5.25;3.00;;;;;;;32.20;34.97;94054.44;4973769;28;20185;-74
2023/08/29 07:45:55;;;;;;;6.68;3.10;;;;;;;32.08;35.33;94044.53;4947938;28;20190;-76
2023/08/29 07:48:20;;;;;;;3.78;3.03;;;;;;;32.50;35.07;94033.47;4945218;28;20249;-76
2023/08/29 07:50:46;;;;;;;6.82;3.17;;;;;;;32.89;33.95;94023.03;4954563;28;20635;-75
2023/08/29 07:53:11;;;;;;;9.98;3.03;;;;;;;33.18;32.41;94045.19;4968415;28;20177;-75
2023/08/29 07:55:37;;;;;;;6.95;3.28;;;;;;;33.39;33.24;94037.22;4973804;28;20256;-75
2023/08/29 07:58:03;;;;;;;8.95;3.63;;;;;;;33.12;32.70;94025.66;4966565;28;20256;-74
2023/08/29 08:00:29;;;;;;;5.68;3.65;;;;;;;33.19;33.06;94023.00;4967140;28;20220;-75
2023/08/29 08:02:55;;;;;;;8.55;3.13;;;;;;;33.11;32.58;94028.75;4958611;28;20238;-76
2023/08/29 08:05:20;;;;;;;6.28;2.92;;;;;;;33.01;32.46;94022.00;4973802;28;20676;-77
2023/08/29 08:07:46;;;;;;;6.03;3.35;;;;;;;32.96;33.15;94022.34;4973503;28;20216;-77
2023/08/29 08:10:13;;;;;;;10.15;4.00;;;;;;;33.04;35.32;94025.94;4973454;28;20747;-76
2023/08/29 08:12:39;;;;;;;9.70;3.85;;;;;;;32.88;36.25;94020.69;4974243;28;20189;-76
2023/08/29 08:15:07;;;;;;;5.63;3.63;;;;;;;32.46;37.62;94012.75;4974383;28;20197;-76
2023/08/29 08:17:34;;;;;;;6.10;3.65;;;;;;;32.27;38.41;94027.28;4974570;28;20188;-77
2023/08/29 08:19:59;;;;;;;7.05;3.60;;;;;;;32.01;38.32;94019.88;4972400;28;20185;-78
2023/08/29 08:22:24;;;;;;;7.30;3.63;;;;;;;31.62;38.33;94024.72;4974063;28;20166;-77
2023/08/29 08:24:50;;;;;;;4.70;3.58;;;;;;;31.27;40.18;94014.00;4974490;28;20169;-77
2023/08/29 08:27:19;;;;;;;10.70;4.18;;;;;;;30.96;38.83;93995.91;4974253;28;20193;-82
2023/08/29 08:29:45;;;;;;;9.05;3.65;;;;;;;30.88;41.04;94005.09;4966404;28;20209;-78
2023/08/29 08:32:10;;;;;;;7.28;4.03;;;;;;;30.81;38.27;94002.22;4974396;28;20529;-77
2023/08/29 08:34:36;;;;;;;5.85;3.28;;;;;;;30.89;39.89;93997.72;4973545;28;20593;-78
2023/08/29 08:37:01;;;;;;;6.38;3.50;;;;;;;30.98;38.60;93990.91;4974553;28;20185;-78
2023/08/29 08:39:26;;;;;;;6.50;4.40;;;;;;;31.11;39.23;93992.34;4974272;28;20165;-79
2023/08/29 08:41:52;;;;;;;10.07;3.55;;;;;;;31.02;37.91;93959.13;4974023;28;20186;-78
2023/08/29 08:44:21;;;;;;;4.38;3.20;;;;;;;31.26;38.62;93989.88;4974066;28;20563;-79
2023/08/29 08:46:46;;;;;;;9.95;3.97;;;;;;;31.35;38.82;93990.41;4973886;28;20192;-76
2023/08/29 08:49:12;;;;;;;8.52;3.30;;;;;;;31.42;37.00;93987.81;4973421;28;20197;-79
2023/08/29 08:51:40;;;;;;;5.60;3.55;;;;;;;31.43;36.39;93995.63;4973227;28;20177;-79
2023/08/29 08:54:10;;;;;;;5.25;3.40;;;;;;;31.59;37.21;93994.69;4956223;28;20260;-78
2023/08/29 08:56:38;;;;;;;6.28;3.13;;;;;;;31.48;36.07;93994.53;4972800;28;20272;-78
2023/08/29 08:59:04;;;;;;;5.35;3.75;;;;;;;31.48;36.08;93995.28;4973673;28;20205;-79
2023/08/29 09:01:29;;;;;;;4.28;3.13;;;;;;;31.52;36.23;93986.41;4973577;28;20165;-79
2023/08/29 09:03:56;;;;;;;11.80;3.88;;;;;;;31.32;35.53;93982.97;4973210;28;20264;-78
2023/08/29 09:06:21;;;;;;;13.15;3.60;;;;;;;31.32;36.30;93986.47;4973956;28;20173;-80
2023/08/29 09:08:47;;;;;;;5.07;3.38;;;;;;;31.13;36.40;93974.88;4956427;28;20661;-78
2023/08/29 09:11:17;;;;;;;5.80;3.30;;;;;;;31.10;36.78;93974.47;4973877;28;20241;-80
2023/08/29 09:13:46;;;;;;;8.98;3.72;;;;;;;31.04;36.66;93970.44;4973425;28;20166;-79
2023/08/29 09:16:12;;;;;;;7.50;3.80;;;;;;;30.95;36.81;93980.75;4972510;28;20645;-79
2023/08/29 09:18:38;;;;;;;5.20;3.65;;;;;;;30.84;37.27;93973.56;4972629;28;20172;-78
2023/08/29 09:21:04;;;;;;;7.22;3.50;;;;;;;30.66;37.04;93965.06;4973073;28;20252;-81
2023/08/29 09:23:36;;;;;;;6.82;3.95;;;;;;;30.65;37.50;93960.75;4968640;28;20178;-79
2023/08/29 09:26:01;;;;;;;9.65;4.10;;;;;;;30.48;38.17;93964.69;4973566;28;20188;-80
2023/08/29 09:28:30;;;;;;;7.28;3.88;;;;;;;30.37;38.09;93944.66;4972919;28;20186;-79
2023/08/29 09:31:04;;;;;;;5.97;3.95;;;;;;;30.35;38.41;93955.13;4972785;28;20302;-80
2023/08/29 09:33:30;;;;;;;7.50;3.50;;;;;;;30.29;38.53;93957.31;4973565;28;20189;-79
2023/08/29 09:35:56;;;;;;;6.32;3.53;;;;;;;30.33;38.12;93970.97;4973255;28;20209;-80
2023/08/29 09:38:22;;;;;;;8.35;3.20;;;;;;;30.12;38.53;93952.31;4973054;28;20629;-79
2023/08/29 09:40:52;;;;;;;6.13;3.58;;;;;;;30.17;38.82;93970.25;4972704;28;20660;-79
2023/08/29 09:43:18;;;;;;;7.18;3.10;;;;;;;30.16;39.13;93964.03;4971802;28;20181;-79
2023/08/29 09:45:52;;;;;;;8.07;3.20;;;;;;;30.20;39.32;93970.31;4977775;28;20184;-81
2023/08/29 09:48:18;;;;;;;6.43;3.75;;;;;;;30.11;38.68;93958.88;4976205;28;20244;-81
2023/08/29 09:50:45;;;;;;;7.85;3.80;;;;;;;30.09;39.21;93963.91;4971111;28;20597;-80
2023/08/29 09:53:14;;;;;;;6.05;3.30;;;;;;;30.04;39.19;93966.88;4971253;28;20182;-80
2023/08/29 09:55:50;;;;;;;8.52;3.75;;;;;;;30.03;39.45;93968.00;4971305;28;20165;-80
2023/08/29 09:58:17;;;;;;;8.93;3.72;;;;;;;29.92;39.06;93946.06;4965153;28;20482;-80
2023/08/29 10:00:43;;;;;;;7.25;3.42;;;;;;;29.94;38.61;93949.22;4971593;28;21003;-80
2023/08/29 10:03:10;;;;;;;6.78;3.83;;;;;;;30.05;38.88;93971.16;4971794;28;20232;-79
2023/08/29 10:05:38;;;;;;;6.00;4.15;;;;;;;29.82;39.20;93934.97;4975476;28;20178;-78
2023/08/29 10:08:51;;;;;;;5.30;3.08;;;;;;;29.91;39.14;93965.41;4967290;28;20292;-78
2023/08/29 10:11:19;;;;;;;7.05;3.10;;;;;;;29.70;39.31;93948.63;4896701;29;20184;-78
2023/08/29 10:13:46;;;;;;;6.90;3.20;;;;;;;28.92;39.74;93846.44;4930942;29;20680;-79
2023/08/29 10:16:15;;;;;;;5.63;3.30;;;;;;;29.60;39.91;93947.25;4956787;28;20177;-81
2023/08/29 10:18:42;;;;;;;8.32;3.80;;;;;;;29.69;39.72;93952.47;4939570;28;20629;-81
2023/08/29 10:21:09;;;;;;;7.75;4.00;;;;;;;29.52;39.93;93921.09;4965142;28;20266;-79
2023/08/29 10:23:36;;;;;;;7.18;4.30;;;;;;;29.17;40.00;93872.22;4955871;28;20174;-79
2023/08/29 10:26:05;;;;;;;4.53;3.22;;;;;;;29.59;40.23;93942.94;4964161;28;20205;-79
2023/08/29 10:28:31;;;;;;;4.68;3.40;;;;;;;28.75;40.13;93810.41;4968323;28;20209;-80
2023/08/29 10:31:02;;;;;;;4.63;3.80;;;;;;;29.27;40.52;93891.44;4952139;28;20200;-80
2023/08/29 10:33:28;;;;;;;9.45;3.60;;;;;;;29.22;40.16;93880.09;4948563;28;20737;-80
2023/08/29 10:35:53;;;;;;;5.13;3.13;;;;;;;29.61;40.44;93930.63;4964894;28;20269;-82
2023/08/29 10:38:19;;;;;;;9.30;3.30;;;;;;;29.81;40.26;93936.88;4957501;28;20190;-80
2023/08/29 10:40:48;;;;;;;3.85;3.28;;;;;;;29.73;40.22;93926.22;4965058;28;20268;-81
2023/08/29 10:43:20;;;;;;;6.32;3.28;;;;;;;29.49;40.74;93924.53;4958740;28;20201;-83
2023/08/29 10:45:47;;;;;;;5.10;2.75;;;;;;;29.41;40.97;93915.41;4967622;28;20276;-81
2023/08/29 10:48:43;;;;;;;7.50;3.47;;;;;;;29.56;40.92;93930.13;4972844;28;20257;-80
2023/08/29 10:51:14;;;;;;;6.15;3.40;;;;;;;29.43;40.93;93901.50;4931494;28;20214;-81
2023/08/29 10:53:51;;;;;;;5.30;3.58;;;;;;;29.43;41.04;93893.38;4962793;28;20254;-80
2023/08/29 10:56:26;;;;;;;7.30;3.65;;;;;;;29.59;41.17;93918.53;4959109;28;20923;-81
2023/08/29 10:58:52;;;;;;;8.05;3.70;;;;;;;29.63;41.51;93922.13;4965337;28;20553;-81
2023/08/29 11:01:24;;;;;;;4.07;3.55;;;;;;;29.61;41.21;93933.34;4961064;28;20185;-83
2023/08/29 11:03:50;;;;;;;6.88;3.85;;;;;;;29.40;41.80;93903.00;4966310;28;20616;-81
2023/08/29 11:06:22;;;;;;;4.30;3.63;;;;;;;29.15;41.57;93874.47;4961398;28;20644;-81
2023/08/29 11:08:48;;;;;;;7.85;3.30;;;;;;;29.16;42.09;93892.31;4963809;28;20716;-79
2023/08/29 11:11:24;;;;;;;6.50;3.92;;;;;;;29.24;42.13;93902.97;4960116;28;20202;-81
2023/08/29 11:14:06;;;;;;;9.23;3.83;;;;;;;29.26;42.42;93906.13;4964838;28;20185;-81
2023/08/29 11:16:35;;;;;;;6.10;3.67;;;;;;;29.04;42.51;93871.53;4955510;28;20187;-81
2023/08/29 11:19:09;;;;;;;4.88;3.78;;;;;;;29.33;42.56;93912.84;4962405;28;20193;-80
2023/08/29 11:21:35;;;;;;;9.73;3.50;;;;;;;29.19;42.16;93888.91;4965160;28;20209;-83
2023/08/29 11:24:05;;;;;;;8.80;3.88;;;;;;;29.40;41.97;93908.44;4961410;28;20217;-82
2023/08/29 11:26:36;;;;;;;5.63;3.65;;;;;;;29.43;42.12;93901.50;4950464;28;20170;-82
2023/08/29 11:29:05;;;;;;;7.15;3.53;;;;;;;29.23;42.51;93881.66;4946150;28;20190;-81
2023/08/29 11:31:47;;;;;;;6.45;3.33;;;;;;;29.31;42.77;93901.59;4951244;28;20261;-81